createdAt,value
2018-01-27T00:00:49.105Z,1019.16
2018-01-27T00:01:49.130Z,1019.14
2018-01-27T00:02:49.149Z,1019.18
2018-01-27T00:03:49.169Z,1019.18
2018-01-27T00:04:49.189Z,1019.16
2018-01-27T00:05:49.202Z,1019.19
2018-01-27T00:06:49.222Z,1019.24
2018-01-27T00:07:49.252Z,1019.25
2018-01-27T00:08:49.262Z,1019.23
2018-01-27T00:09:49.281Z,1019.25
2018-01-27T00:10:49.300Z,1019.28
2018-01-27T00:11:49.326Z,1019.31
2018-01-27T00:12:49.346Z,1019.29
2018-01-27T00:13:49.360Z,1019.35
2018-01-27T00:14:49.378Z,1019.32
2018-01-27T00:15:49.404Z,1019.27
2018-01-27T00:16:49.422Z,1019.26
2018-01-27T00:17:49.442Z,1019.31
2018-01-27T00:18:49.463Z,1019.29
2018-01-27T00:19:49.475Z,1019.27
2018-01-27T00:20:49.495Z,1019.28
2018-01-27T00:21:49.524Z,1019.26
2018-01-27T00:22:49.540Z,1019.31
2018-01-27T00:23:49.555Z,1019.28
2018-01-27T00:24:49.574Z,1019.25
2018-01-27T00:25:49.598Z,1019.26
2018-01-27T00:26:49.617Z,1019.29
2018-01-27T00:27:49.632Z,1019.25
2018-01-27T00:28:49.653Z,1019.24
2018-01-27T00:29:49.677Z,1019.22
2018-01-27T00:30:49.696Z,1019.19
2018-01-27T00:31:49.710Z,1019.23
2018-01-27T00:32:49.731Z,1019.26
2018-01-27T00:33:49.754Z,1019.25
2018-01-27T00:34:49.769Z,1019.19
2018-01-27T00:35:49.794Z,1019.26
2018-01-27T00:36:49.809Z,1019.29
2018-01-27T00:37:49.833Z,1019.30
2018-01-27T00:38:49.847Z,1019.25
2018-01-27T00:39:49.871Z,1019.26
2018-01-27T00:40:49.885Z,1019.29
2018-01-27T00:41:49.910Z,1019.29
2018-01-27T00:42:49.924Z,1019.27
2018-01-27T00:43:49.951Z,1019.28
2018-01-27T00:44:49.964Z,1019.27
2018-01-27T00:45:49.987Z,1019.32
2018-01-27T00:46:50.004Z,1019.28
2018-01-27T00:47:50.027Z,1019.27
2018-01-27T00:48:50.042Z,1019.31
2018-01-27T00:49:50.067Z,1019.36
2018-01-27T00:50:50.085Z,1019.30
2018-01-27T00:51:50.100Z,1019.30
2018-01-27T00:52:50.125Z,1019.33
2018-01-27T00:53:50.139Z,1019.33
2018-01-27T00:54:50.164Z,1019.35
2018-01-27T00:55:50.177Z,1019.40
2018-01-27T00:56:50.204Z,1019.36
2018-01-27T00:57:50.216Z,1019.35
2018-01-27T00:58:50.242Z,1019.30
2018-01-27T00:59:50.254Z,1019.41
2018-01-27T01:00:50.281Z,1019.36
2018-01-27T01:01:50.294Z,1019.33
2018-01-27T01:02:50.319Z,1019.36
2018-01-27T01:03:50.332Z,1019.32
2018-01-27T01:04:50.358Z,1019.33
2018-01-27T01:05:50.370Z,1019.30
2018-01-27T01:06:50.395Z,1019.33
2018-01-27T01:07:50.409Z,1019.32
2018-01-27T01:08:50.430Z,1019.37
2018-01-27T01:09:50.452Z,1019.39
2018-01-27T01:10:50.471Z,1019.41
2018-01-27T01:11:50.487Z,1019.41
2018-01-27T01:12:50.506Z,1019.49
2018-01-27T01:13:50.530Z,1019.46
2018-01-27T01:14:50.550Z,1019.49
2018-01-27T01:15:50.563Z,1019.45
2018-01-27T01:16:50.584Z,1019.44
2018-01-27T01:17:50.607Z,1019.44
2018-01-27T01:18:50.629Z,1019.49
2018-01-27T01:19:50.641Z,1019.46
2018-01-27T01:20:50.661Z,1019.52
2018-01-27T01:21:50.687Z,1019.52
2018-01-27T01:22:50.704Z,1019.53
2018-01-27T01:23:50.717Z,1019.56
2018-01-27T01:24:50.740Z,1019.60
2018-01-27T01:25:50.762Z,1019.58
2018-01-27T01:26:50.783Z,1019.59
2018-01-27T01:27:50.796Z,1019.57
2018-01-27T01:28:50.820Z,1019.58
2018-01-27T01:29:50.832Z,1019.61
2018-01-27T01:30:50.858Z,1019.63
2018-01-27T01:31:50.872Z,1019.63
2018-01-27T01:32:50.892Z,1019.66
2018-01-27T01:33:50.908Z,1019.65
2018-01-27T01:34:50.934Z,1019.68
2018-01-27T01:35:50.958Z,1019.68
2018-01-27T01:36:50.968Z,1019.75
2018-01-27T01:37:50.991Z,1019.72
2018-01-27T01:38:51.012Z,1019.70
2018-01-27T01:39:51.024Z,1019.72
2018-01-27T01:40:51.044Z,1019.73
2018-01-27T01:41:51.070Z,1019.71
2018-01-27T01:42:51.088Z,1019.73
2018-01-27T01:43:51.101Z,1019.73
2018-01-27T01:44:51.120Z,1019.77
2018-01-27T01:45:51.144Z,1019.75
2018-01-27T01:46:51.164Z,1019.79
2018-01-27T01:47:51.187Z,1019.83
2018-01-27T01:48:51.197Z,1019.80
2018-01-27T01:49:51.216Z,1019.77
2018-01-27T01:50:51.235Z,1019.77
2018-01-27T01:51:51.260Z,1019.76
2018-01-27T01:52:51.275Z,1019.73
2018-01-27T01:53:51.297Z,1019.77
2018-01-27T01:54:51.317Z,1019.69
2018-01-27T01:55:51.331Z,1019.73
2018-01-27T01:56:51.350Z,1019.71
2018-01-27T01:57:51.377Z,1019.72
2018-01-27T01:58:51.397Z,1019.76
2018-01-27T01:59:51.407Z,1019.76
2018-01-27T02:00:51.429Z,1019.77
2018-01-27T02:01:51.451Z,1019.77
2018-01-27T02:02:51.465Z,1019.79
2018-01-27T02:03:51.484Z,1019.73
2018-01-27T02:04:51.504Z,1019.74
2018-01-27T02:05:51.521Z,1019.76
2018-01-27T02:06:51.547Z,1019.75
2018-01-27T02:07:51.560Z,1019.74
2018-01-27T02:08:51.582Z,1019.70
2018-01-27T02:09:51.604Z,1019.71
2018-01-27T02:10:51.618Z,1019.77
2018-01-27T02:11:51.642Z,1019.78
2018-01-27T02:12:51.656Z,1019.79
2018-01-27T02:13:51.680Z,1019.79
2018-01-27T02:14:51.694Z,1019.84
2018-01-27T02:15:51.719Z,1019.77
2018-01-27T02:16:51.734Z,1019.82
2018-01-27T02:17:51.757Z,1019.86
2018-01-27T02:18:51.771Z,1019.80
2018-01-27T02:19:51.796Z,1019.82
2018-01-27T02:20:51.815Z,1019.84
2018-01-27T02:21:51.828Z,1019.84
2018-01-27T02:22:51.848Z,1019.85
2018-01-27T02:23:51.872Z,1019.90
2018-01-27T02:24:51.891Z,1019.87
2018-01-27T02:25:51.904Z,1019.84
2018-01-27T02:26:51.924Z,1019.82
2018-01-27T02:27:51.949Z,1019.87
2018-01-27T02:28:51.969Z,1019.86
2018-01-27T02:29:51.981Z,1019.87
2018-01-27T02:30:52.007Z,1019.88
2018-01-27T02:31:52.027Z,1019.87
2018-01-27T02:32:52.045Z,1019.89
2018-01-27T02:33:52.058Z,1019.90
2018-01-27T02:34:52.078Z,1019.87
2018-01-27T02:35:52.102Z,1019.89
2018-01-27T02:36:52.116Z,1019.91
2018-01-27T02:37:52.140Z,1019.87
2018-01-27T02:38:52.155Z,1019.90
2018-01-27T02:39:52.178Z,1019.87
2018-01-27T02:40:52.192Z,1019.90
2018-01-27T02:41:52.217Z,1019.94
2018-01-27T02:42:52.232Z,1019.86
2018-01-27T02:43:52.256Z,1019.94
2018-01-27T02:44:52.269Z,1019.90
2018-01-27T02:45:52.294Z,1019.94
2018-01-27T02:46:52.308Z,1019.97
2018-01-27T02:47:52.332Z,1019.96
2018-01-27T02:48:52.347Z,1019.94
2018-01-27T02:49:52.371Z,1019.94
2018-01-27T02:50:52.389Z,1019.91
2018-01-27T02:51:52.403Z,1019.97
2018-01-27T02:52:52.430Z,1019.92
2018-01-27T02:53:52.444Z,1019.97
2018-01-27T02:54:52.466Z,1019.95
2018-01-27T02:55:52.480Z,1019.97
2018-01-27T02:56:52.505Z,1019.93
2018-01-27T02:57:52.518Z,1019.92
2018-01-27T02:58:52.543Z,1019.95
2018-01-27T02:59:52.556Z,1019.95
2018-01-27T03:00:52.581Z,1019.88
2018-01-27T03:01:52.594Z,1019.92
2018-01-27T03:02:52.619Z,1019.90
2018-01-27T03:03:52.633Z,1019.88
2018-01-27T03:04:52.658Z,1019.96
2018-01-27T03:05:52.670Z,1019.97
2018-01-27T03:06:52.690Z,1019.96
2018-01-27T03:07:52.715Z,1019.94
2018-01-27T03:08:52.736Z,1019.93
2018-01-27T03:09:52.748Z,1019.93
2018-01-27T03:10:52.767Z,1019.99
2018-01-27T03:11:52.792Z,1019.93
2018-01-27T03:12:52.810Z,1019.96
2018-01-27T03:13:52.824Z,1019.95
2018-01-27T03:14:52.843Z,1019.96
2018-01-27T03:15:52.869Z,1019.95
2018-01-27T03:16:52.888Z,1020.01
2018-01-27T03:17:52.902Z,1020.07
2018-01-27T03:18:52.920Z,1020.09
2018-01-27T03:19:52.946Z,1020.04
2018-01-27T03:20:52.966Z,1020.07
2018-01-27T03:21:52.978Z,1020.10
2018-01-27T03:22:53.001Z,1020.08
2018-01-27T03:23:53.016Z,1020.07
2018-01-27T03:24:53.036Z,1020.07
2018-01-27T03:25:53.060Z,1020.12
2018-01-27T03:26:53.079Z,1020.15
2018-01-27T03:27:53.092Z,1020.15
2018-01-27T03:28:53.112Z,1020.11
2018-01-27T03:29:53.135Z,1020.16
2018-01-27T03:30:53.150Z,1020.17
2018-01-27T03:31:53.173Z,1020.12
2018-01-27T03:32:53.195Z,1020.18
2018-01-27T03:33:53.207Z,1020.19
2018-01-27T03:34:53.226Z,1020.13
2018-01-27T03:35:53.249Z,1020.17
2018-01-27T03:36:53.271Z,1020.16
2018-01-27T03:37:53.283Z,1020.20
2018-01-27T03:38:53.302Z,1020.19
2018-01-27T03:39:53.327Z,1020.26
2018-01-27T03:40:53.347Z,1020.19
2018-01-27T03:41:53.358Z,1020.21
2018-01-27T03:42:53.378Z,1020.23
2018-01-27T03:43:53.403Z,1020.25
2018-01-27T03:44:53.423Z,1020.27
2018-01-27T03:45:53.434Z,1020.29
2018-01-27T03:46:53.454Z,1020.28
2018-01-27T03:47:53.479Z,1020.33
2018-01-27T03:48:53.492Z,1020.23
2018-01-27T03:49:53.522Z,1020.30
2018-01-27T03:50:53.530Z,1020.35
2018-01-27T03:51:53.557Z,1020.32
2018-01-27T03:52:53.568Z,1020.32
2018-01-27T03:53:53.592Z,1020.33
2018-01-27T03:54:53.606Z,1020.39
2018-01-27T03:55:53.635Z,1020.35
2018-01-27T03:56:53.643Z,1020.35
2018-01-27T03:57:53.668Z,1020.37
2018-01-27T03:58:53.683Z,1020.41
2018-01-27T03:59:53.708Z,1020.46
2018-01-27T04:00:53.720Z,1020.47
2018-01-27T04:01:53.744Z,1020.49
2018-01-27T04:02:53.762Z,1020.51
2018-01-27T04:03:53.775Z,1020.50
2018-01-27T04:04:53.801Z,1020.50
2018-01-27T04:05:53.813Z,1020.59
2018-01-27T04:06:53.838Z,1020.61
2018-01-27T04:07:53.851Z,1020.65
2018-01-27T04:08:53.876Z,1020.70
2018-01-27T04:09:53.890Z,1020.69
2018-01-27T04:10:53.913Z,1020.71
2018-01-27T04:11:53.927Z,1020.75
2018-01-27T04:12:53.951Z,1020.70
2018-01-27T04:13:53.964Z,1020.69
2018-01-27T04:14:53.988Z,1020.70
2018-01-27T04:15:54.001Z,1020.66
2018-01-27T04:16:54.026Z,1020.67
2018-01-27T04:17:54.042Z,1020.68
2018-01-27T04:18:54.059Z,1020.69
2018-01-27T04:19:54.083Z,1020.74
2018-01-27T04:20:54.101Z,1020.77
2018-01-27T04:21:54.114Z,1020.74
2018-01-27T04:22:54.133Z,1020.78
2018-01-27T04:23:54.159Z,1020.75
2018-01-27T04:24:54.179Z,1020.76
2018-01-27T04:25:54.189Z,1020.77
2018-01-27T04:26:54.213Z,1020.78
2018-01-27T04:27:54.227Z,1020.85
2018-01-27T04:28:54.249Z,1020.83
2018-01-27T04:29:54.265Z,1020.85
2018-01-27T04:30:54.290Z,1020.89
2018-01-27T04:31:54.309Z,1020.90
2018-01-27T04:32:54.322Z,1020.90
2018-01-27T04:33:54.346Z,1020.99
2018-01-27T04:34:54.366Z,1021.04
2018-01-27T04:35:54.379Z,1021.03
2018-01-27T04:36:54.399Z,1021.04
2018-01-27T04:37:54.422Z,1021.07
2018-01-27T04:38:54.442Z,1021.08
2018-01-27T04:39:54.455Z,1021.05
2018-01-27T04:40:54.475Z,1021.03
2018-01-27T04:41:54.497Z,1021.05
2018-01-27T04:42:54.512Z,1021.11
2018-01-27T04:43:54.536Z,1021.06
2018-01-27T04:44:54.550Z,1021.09
2018-01-27T04:45:54.568Z,1021.10
2018-01-27T04:46:54.588Z,1021.14
2018-01-27T04:47:54.606Z,1021.07
2018-01-27T04:48:54.624Z,1021.12
2018-01-27T04:49:54.648Z,1021.17
2018-01-27T04:50:54.663Z,1021.21
2018-01-27T04:51:54.694Z,1021.22
2018-01-27T04:52:54.701Z,1021.25
2018-01-27T04:53:54.725Z,1021.30
2018-01-27T04:54:54.738Z,1021.27
2018-01-27T04:55:54.764Z,1021.28
2018-01-27T04:56:54.776Z,1021.30
2018-01-27T04:57:54.801Z,1021.31
2018-01-27T04:58:54.824Z,1021.30
2018-01-27T04:59:54.839Z,1021.36
2018-01-27T05:00:54.858Z,1021.35
2018-01-27T05:01:54.875Z,1021.33
2018-01-27T05:02:54.890Z,1021.34
2018-01-27T05:03:54.915Z,1021.36
2018-01-27T05:04:54.934Z,1021.33
2018-01-27T05:05:54.946Z,1021.35
2018-01-27T05:06:54.971Z,1021.33
2018-01-27T05:07:54.984Z,1021.36
2018-01-27T05:08:55.009Z,1021.38
2018-01-27T05:09:55.028Z,1021.41
2018-01-27T05:10:55.046Z,1021.42
2018-01-27T05:11:55.060Z,1021.43
2018-01-27T05:12:55.084Z,1021.46
2018-01-27T05:13:55.098Z,1021.52
2018-01-27T05:14:55.123Z,1021.48
2018-01-27T05:15:55.141Z,1021.48
2018-01-27T05:16:55.156Z,1021.47
2018-01-27T05:17:55.173Z,1021.53
2018-01-27T05:18:55.192Z,1021.57
2018-01-27T05:19:55.218Z,1021.50
2018-01-27T05:20:55.231Z,1021.53
2018-01-27T05:21:55.254Z,1021.59
2018-01-27T05:22:55.275Z,1021.66
2018-01-27T05:23:55.287Z,1021.67
2018-01-27T05:24:55.306Z,1021.70
2018-01-27T05:25:55.332Z,1021.80
2018-01-27T05:26:55.350Z,1021.81
2018-01-27T05:27:55.363Z,1021.80
2018-01-27T05:28:55.383Z,1021.84
2018-01-27T05:29:55.406Z,1021.82
2018-01-27T05:30:55.419Z,1021.87
2018-01-27T05:31:55.443Z,1021.89
2018-01-27T05:32:55.464Z,1021.87
2018-01-27T05:33:55.480Z,1021.86
2018-01-27T05:34:55.494Z,1021.89
2018-01-27T05:35:55.514Z,1021.89
2018-01-27T05:36:55.538Z,1021.88
2018-01-27T05:37:55.552Z,1021.84
2018-01-27T05:38:55.578Z,1021.84
2018-01-27T05:39:55.590Z,1021.84
2018-01-27T05:40:55.609Z,1021.80
2018-01-27T05:41:55.635Z,1021.79
2018-01-27T05:42:55.652Z,1021.87
2018-01-27T05:43:55.666Z,1021.88
2018-01-27T05:44:55.685Z,1021.84
2018-01-27T05:45:55.709Z,1021.88
2018-01-27T05:46:55.727Z,1021.88
2018-01-27T05:47:55.743Z,1021.87
2018-01-27T05:48:55.761Z,1021.91
2018-01-27T05:49:55.782Z,1021.94
2018-01-27T05:50:55.805Z,1021.92
2018-01-27T05:51:55.826Z,1021.93
2018-01-27T05:52:55.836Z,1022.03
2018-01-27T05:53:55.861Z,1022.01
2018-01-27T05:54:55.875Z,1022.03
2018-01-27T05:55:55.900Z,1021.97
2018-01-27T05:56:55.914Z,1021.99
2018-01-27T05:57:55.937Z,1021.94
2018-01-27T05:58:55.952Z,1021.91
2018-01-27T05:59:55.974Z,1021.91
2018-01-27T06:00:55.988Z,1021.92
2018-01-27T06:01:56.013Z,1021.94
2018-01-27T06:02:56.026Z,1021.92
2018-01-27T06:03:56.046Z,1021.95
2018-01-27T06:04:56.064Z,1022.00
2018-01-27T06:05:56.083Z,1022.02
2018-01-27T06:06:56.107Z,1022.00
2018-01-27T06:07:56.121Z,1021.99
2018-01-27T06:08:56.142Z,1021.98
2018-01-27T06:09:56.167Z,1021.93
2018-01-27T06:10:56.184Z,1021.96
2018-01-27T06:11:56.197Z,1022.03
2018-01-27T06:12:56.223Z,1021.94
2018-01-27T06:13:56.236Z,1022.00
2018-01-27T06:14:56.260Z,1022.01
2018-01-27T06:15:56.274Z,1021.99
2018-01-27T06:16:56.298Z,1021.96
2018-01-27T06:17:56.311Z,1022.05
2018-01-27T06:18:56.335Z,1022.01
2018-01-27T06:19:56.349Z,1022.00
2018-01-27T06:20:56.376Z,1021.98
2018-01-27T06:21:56.394Z,1022.06
2018-01-27T06:22:56.412Z,1022.04
2018-01-27T06:23:56.430Z,1022.02
2018-01-27T06:24:56.450Z,1022.02
2018-01-27T06:25:56.462Z,1022.02
2018-01-27T06:26:56.487Z,1022.00
2018-01-27T06:27:56.502Z,1022.00
2018-01-27T06:28:56.577Z,1022.04
2018-01-27T06:29:56.544Z,1022.09
2018-01-27T06:30:56.562Z,1022.05
2018-01-27T06:31:56.578Z,1022.12
2018-01-27T06:32:56.595Z,1022.11
2018-01-27T06:33:56.620Z,1022.16
2018-01-27T06:34:56.638Z,1022.17
2018-01-27T06:35:56.653Z,1022.14
2018-01-27T06:36:56.678Z,1022.16
2018-01-27T06:37:56.691Z,1022.19
2018-01-27T06:38:56.715Z,1022.16
2018-01-27T06:39:56.729Z,1022.16
2018-01-27T06:40:56.754Z,1022.20
2018-01-27T06:41:56.766Z,1022.29
2018-01-27T06:42:56.787Z,1022.28
2018-01-27T06:43:56.811Z,1022.32
2018-01-27T06:44:56.824Z,1022.38
2018-01-27T06:45:56.848Z,1022.37
2018-01-27T06:46:56.862Z,1022.38
2018-01-27T06:47:56.887Z,1022.42
2018-01-27T06:48:56.902Z,1022.46
2018-01-27T06:49:56.924Z,1022.43
2018-01-27T06:50:56.938Z,1022.44
2018-01-27T06:51:56.963Z,1022.42
2018-01-27T06:52:56.983Z,1022.41
2018-01-27T06:53:56.995Z,1022.39
2018-01-27T06:54:57.013Z,1022.42
2018-01-27T06:55:57.039Z,1022.33
2018-01-27T06:56:57.059Z,1022.34
2018-01-27T06:57:57.071Z,1022.33
2018-01-27T06:58:57.096Z,1022.36
2018-01-27T06:59:57.110Z,1022.38
2018-01-27T07:00:57.136Z,1022.40
2018-01-27T07:01:57.148Z,1022.40
2018-01-27T07:02:57.173Z,1022.47
2018-01-27T07:03:57.186Z,1022.52
2018-01-27T07:04:57.212Z,1022.54
2018-01-27T07:05:57.225Z,1022.56
2018-01-27T07:06:57.243Z,1022.54
2018-01-27T07:07:57.269Z,1022.52
2018-01-27T07:08:57.288Z,1022.59
2018-01-27T07:09:57.301Z,1022.59
2018-01-27T07:10:57.322Z,1022.60
2018-01-27T07:11:57.344Z,1022.60
2018-01-27T07:12:57.364Z,1022.60
2018-01-27T07:13:57.376Z,1022.65
2018-01-27T07:14:57.402Z,1022.66
2018-01-27T07:15:57.422Z,1022.67
2018-01-27T07:16:57.434Z,1022.64
2018-01-27T07:17:57.458Z,1022.66
2018-01-27T07:18:57.478Z,1022.65
2018-01-27T07:19:57.491Z,1022.64
2018-01-27T07:20:57.563Z,1022.59
2018-01-27T07:21:57.536Z,1022.59
2018-01-27T07:22:57.547Z,1022.61
2018-01-27T07:23:57.571Z,1022.63
2018-01-27T07:24:57.588Z,1022.61
2018-01-27T07:25:57.611Z,1022.64
2018-01-27T07:26:57.627Z,1022.71
2018-01-27T07:27:57.649Z,1022.67
2018-01-27T07:28:57.662Z,1022.69
2018-01-27T07:29:57.686Z,1022.70
2018-01-27T07:30:57.700Z,1022.75
2018-01-27T07:31:57.726Z,1022.77
2018-01-27T07:32:57.745Z,1022.80
2018-01-27T07:33:57.759Z,1022.80
2018-01-27T07:34:57.776Z,1022.82
2018-01-27T07:35:57.802Z,1022.85
2018-01-27T07:36:57.821Z,1022.82
2018-01-27T07:37:57.833Z,1022.76
2018-01-27T07:38:57.860Z,1022.80
2018-01-27T07:39:57.873Z,1022.79
2018-01-27T07:40:57.897Z,1022.77
2018-01-27T07:41:57.909Z,1022.80
2018-01-27T07:42:57.934Z,1022.75
2018-01-27T07:43:57.950Z,1022.83
2018-01-27T07:44:57.973Z,1022.85
2018-01-27T07:45:58.009Z,1022.81
2018-01-27T07:46:58.010Z,1022.79
2018-01-27T07:47:58.031Z,1022.85
2018-01-27T07:48:58.049Z,1022.89
2018-01-27T07:49:58.061Z,1022.93
2018-01-27T07:50:58.086Z,1022.92
2018-01-27T07:51:58.101Z,1022.94
2018-01-27T07:52:58.125Z,1022.97
2018-01-27T07:53:58.136Z,1022.93
2018-01-27T07:54:58.157Z,1022.95
2018-01-27T07:55:58.182Z,1022.95
2018-01-27T07:56:58.200Z,1022.91
2018-01-27T07:57:58.214Z,1022.93
2018-01-27T07:58:58.234Z,1022.95
2018-01-27T07:59:58.258Z,1022.94
2018-01-27T08:00:58.277Z,1023.00
2018-01-27T08:01:58.289Z,1022.94
2018-01-27T08:02:58.309Z,1023.04
2018-01-27T08:03:58.334Z,1023.05
2018-01-27T08:04:58.353Z,1023.07
2018-01-27T08:05:58.366Z,1023.10
2018-01-27T08:06:58.385Z,1023.17
2018-01-27T08:07:58.410Z,1023.20
2018-01-27T08:08:58.430Z,1023.17
2018-01-27T08:09:58.445Z,1023.12
2018-01-27T08:10:58.462Z,1023.14
2018-01-27T08:11:58.487Z,1023.13
2018-01-27T08:12:58.509Z,1023.13
2018-01-27T08:13:58.518Z,1023.19
2018-01-27T08:14:58.541Z,1023.15
2018-01-27T08:15:58.563Z,1023.16
2018-01-27T08:16:58.582Z,1023.14
2018-01-27T08:17:58.595Z,1023.17
2018-01-27T08:18:58.613Z,1023.15
2018-01-27T08:19:58.639Z,1023.12
2018-01-27T08:20:58.658Z,1023.11
2018-01-27T08:21:58.672Z,1023.15
2018-01-27T08:22:58.689Z,1023.07
2018-01-27T08:23:58.720Z,1023.12
2018-01-27T08:24:58.734Z,1023.18
2018-01-27T08:25:58.748Z,1023.21
2018-01-27T08:26:58.765Z,1023.17
2018-01-27T08:27:58.791Z,1023.22
2018-01-27T08:28:58.806Z,1023.17
2018-01-27T08:29:58.828Z,1023.18
2018-01-27T08:30:58.841Z,1023.12
2018-01-27T08:31:58.867Z,1023.19
2018-01-27T08:32:58.880Z,1023.14
2018-01-27T08:33:58.906Z,1023.20
2018-01-27T08:34:58.918Z,1023.30
2018-01-27T08:35:58.982Z,1023.26
2018-01-27T08:36:58.956Z,1023.27
2018-01-27T08:37:58.981Z,1023.25
2018-01-27T08:38:58.995Z,1023.29
2018-01-27T08:39:59.019Z,1023.25
2018-01-27T08:40:59.033Z,1023.30
2018-01-27T08:41:59.057Z,1023.30
2018-01-27T08:42:59.076Z,1023.26
2018-01-27T08:43:59.096Z,1023.22
2018-01-27T08:44:59.114Z,1023.18
2018-01-27T08:45:59.129Z,1023.11
2018-01-27T08:46:59.153Z,1023.13
2018-01-27T08:47:59.167Z,1023.10
2018-01-27T08:48:59.193Z,1023.14
2018-01-27T08:49:59.204Z,1023.14
2018-01-27T08:50:59.224Z,1023.15
2018-01-27T08:51:59.249Z,1023.24
2018-01-27T08:52:59.316Z,1023.22
2018-01-27T08:53:59.282Z,1023.19
2018-01-27T08:54:59.300Z,1023.18
2018-01-27T08:55:59.321Z,1023.16
2018-01-27T08:56:59.338Z,1023.16
2018-01-27T08:57:59.363Z,1023.19
2018-01-27T08:58:59.383Z,1023.19
2018-01-27T08:59:59.396Z,1023.24
2018-01-27T09:00:59.415Z,1023.28
2018-01-27T09:01:59.470Z,1023.31
2018-01-27T09:02:59.462Z,1023.33
2018-01-27T09:03:59.473Z,1023.37
2018-01-27T09:04:59.494Z,1023.32
2018-01-27T09:05:59.516Z,1023.35
2018-01-27T09:06:59.536Z,1023.32
2018-01-27T09:07:59.550Z,1023.41
2018-01-27T09:08:59.576Z,1023.38
2018-01-27T09:09:59.594Z,1023.44
2018-01-27T09:10:59.620Z,1023.45
2018-01-27T09:11:59.634Z,1023.42
2018-01-27T09:12:59.654Z,1023.46
2018-01-27T09:13:59.703Z,1023.51
2018-01-27T09:14:59.692Z,1023.44
2018-01-27T09:15:59.706Z,1023.45
2018-01-27T09:16:59.727Z,1023.42
2018-01-27T09:17:59.751Z,1023.47
2018-01-27T09:18:59.770Z,1023.51
2018-01-27T09:19:59.785Z,1023.51
2018-01-27T09:20:59.804Z,1023.53
2018-01-27T09:21:59.830Z,1023.51
2018-01-27T09:22:59.843Z,1023.49
2018-01-27T09:23:59.864Z,1023.47
2018-01-27T09:24:59.883Z,1023.45
2018-01-27T09:25:59.909Z,1023.40
2018-01-27T09:26:59.963Z,1023.40
2018-01-27T09:27:59.944Z,1023.38
2018-01-27T09:28:59.969Z,1023.37
2018-01-27T09:29:59.988Z,1023.35
2018-01-27T09:31:00.005Z,1023.28
2018-01-27T09:32:00.032Z,1023.23
2018-01-27T09:33:00.049Z,1023.24
2018-01-27T09:34:00.066Z,1023.16
2018-01-27T09:35:00.084Z,1023.23
2018-01-27T09:36:00.107Z,1023.19
2018-01-27T09:37:00.123Z,1023.28
2018-01-27T09:38:00.148Z,1023.35
2018-01-27T09:39:00.166Z,1023.50
2018-01-27T09:40:00.187Z,1023.51
2018-01-27T09:41:00.207Z,1023.51
2018-01-27T09:42:00.221Z,1023.54
2018-01-27T09:43:00.242Z,1023.56
2018-01-27T09:44:00.270Z,1023.48
2018-01-27T09:45:00.287Z,1023.46
2018-01-27T09:46:00.307Z,1023.54
2018-01-27T09:47:00.338Z,1023.51
2018-01-27T09:48:00.351Z,1023.46
2018-01-27T09:49:00.380Z,1023.49
2018-01-27T09:50:00.398Z,1023.44
2018-01-27T09:51:00.426Z,1023.50
2018-01-27T09:52:00.448Z,1023.46
2018-01-27T09:53:00.476Z,1023.46
2018-01-27T09:54:00.492Z,1023.50
2018-01-27T09:55:00.522Z,1023.54
2018-01-27T09:56:00.547Z,1023.57
2018-01-27T09:57:00.568Z,1023.47
2018-01-27T09:58:00.596Z,1023.40
2018-01-27T09:59:00.617Z,1023.37
2018-01-27T10:00:00.646Z,1023.37
2018-01-27T10:01:00.672Z,1023.31
2018-01-27T10:02:00.697Z,1023.41
2018-01-27T10:03:00.727Z,1023.32
2018-01-27T10:04:00.744Z,1023.19
2018-01-27T10:05:00.769Z,1023.51
2018-01-27T10:06:00.801Z,1023.42
2018-01-27T10:07:00.856Z,1023.41
2018-01-27T10:08:00.930Z,1023.52
2018-01-27T10:09:00.900Z,1023.52
2018-01-27T10:10:00.945Z,1023.49
2018-01-27T10:11:00.952Z,1023.54
2018-01-27T10:12:00.959Z,1023.43
2018-01-27T10:13:00.982Z,1023.39
2018-01-27T10:14:01.003Z,1023.38
2018-01-27T10:15:01.035Z,1023.36
2018-01-27T10:16:01.061Z,1023.46
2018-01-27T10:17:01.083Z,1023.52
2018-01-27T10:18:01.108Z,1023.36
2018-01-27T10:19:01.142Z,1023.03
2018-01-27T10:20:01.164Z,1022.97
2018-01-27T10:21:01.211Z,1022.96
2018-01-27T10:22:01.223Z,1023.00
2018-01-27T10:23:01.250Z,1023.02
2018-01-27T10:24:01.272Z,1022.99
2018-01-27T10:25:01.298Z,1022.95
2018-01-27T10:26:01.331Z,1022.99
2018-01-27T10:27:01.378Z,1023.01
2018-01-27T10:28:01.384Z,1022.97
2018-01-27T10:29:01.408Z,1023.04
2018-01-27T10:30:01.457Z,1022.99
2018-01-27T10:31:01.452Z,1023.02
2018-01-27T10:32:01.481Z,1022.97
2018-01-27T10:33:01.502Z,1022.98
2018-01-27T10:34:01.530Z,1022.96
2018-01-27T10:35:01.549Z,1023.02
2018-01-27T10:36:01.581Z,1023.04
2018-01-27T10:37:01.600Z,1023.02
2018-01-27T10:38:01.627Z,1023.08
2018-01-27T10:39:01.645Z,1023.07
2018-01-27T10:40:01.674Z,1023.02
2018-01-27T10:41:01.692Z,1023.05
2018-01-27T10:42:01.721Z,1023.07
2018-01-27T10:43:01.739Z,1023.16
2018-01-27T10:44:01.763Z,1023.14
2018-01-27T10:45:01.823Z,1023.15
2018-01-27T10:46:01.829Z,1023.20
2018-01-27T10:47:01.838Z,1023.25
2018-01-27T10:48:01.858Z,1023.27
2018-01-27T10:49:01.949Z,1023.22
2018-01-27T10:50:01.898Z,1023.15
2018-01-27T10:51:01.921Z,1023.14
2018-01-27T10:52:01.954Z,1023.11
2018-01-27T10:53:01.971Z,1023.16
2018-01-27T10:54:02.006Z,1023.21
2018-01-27T10:55:02.007Z,1023.20
2018-01-27T10:56:02.035Z,1023.12
2018-01-27T10:57:02.058Z,1023.11
2018-01-27T10:58:02.080Z,1023.14
2018-01-27T10:59:02.096Z,1023.20
2018-01-27T11:00:02.165Z,1023.16
2018-01-27T11:01:02.145Z,1023.17
2018-01-27T11:02:02.164Z,1023.26
2018-01-27T11:03:02.182Z,1023.25
2018-01-27T11:04:02.210Z,1023.23
2018-01-27T11:05:02.231Z,1023.22
2018-01-27T11:06:02.247Z,1023.21
2018-01-27T11:07:02.267Z,1023.21
2018-01-27T11:08:02.295Z,1023.21
2018-01-27T11:09:02.310Z,1023.16
2018-01-27T11:10:02.336Z,1023.17
2018-01-27T11:11:02.353Z,1023.13
2018-01-27T11:12:02.379Z,1023.20
2018-01-27T11:13:02.396Z,1023.19
2018-01-27T11:14:02.420Z,1023.22
2018-01-27T11:15:02.437Z,1023.22
2018-01-27T11:16:02.463Z,1023.15
2018-01-27T11:17:02.478Z,1023.24
2018-01-27T11:18:02.505Z,1023.21
2018-01-27T11:19:02.519Z,1023.19
2018-01-27T11:20:02.546Z,1023.17
2018-01-27T11:21:02.562Z,1023.24
2018-01-27T11:22:02.588Z,1023.30
2018-01-27T11:23:02.622Z,1023.22
2018-01-27T11:24:02.640Z,1023.21
2018-01-27T11:25:02.669Z,1023.29
2018-01-27T11:26:02.682Z,1023.26
2018-01-27T11:27:02.687Z,1023.35
2018-01-27T11:28:02.705Z,1023.34
2018-01-27T11:29:02.729Z,1023.36
2018-01-27T11:30:02.748Z,1023.33
2018-01-27T11:31:02.769Z,1023.35
2018-01-27T11:32:02.785Z,1023.34
2018-01-27T11:33:02.812Z,1023.28
2018-01-27T11:34:02.824Z,1023.25
2018-01-27T11:35:02.851Z,1023.24
2018-01-27T11:36:02.864Z,1023.26
2018-01-27T11:37:02.893Z,1023.25
2018-01-27T11:38:02.909Z,1023.19
2018-01-27T11:39:02.925Z,1023.20
2018-01-27T11:40:02.967Z,1023.19
2018-01-27T11:41:02.990Z,1023.18
2018-01-27T11:42:02.985Z,1023.18
2018-01-27T11:43:03.006Z,1023.16
2018-01-27T11:44:03.031Z,1023.09
2018-01-27T11:45:03.057Z,1023.18
2018-01-27T11:46:03.064Z,1023.15
2018-01-27T11:47:03.085Z,1023.19
2018-01-27T11:48:03.117Z,1023.19
2018-01-27T11:49:03.132Z,1023.21
2018-01-27T11:50:03.144Z,1023.14
2018-01-27T11:51:03.165Z,1023.14
2018-01-27T11:52:03.191Z,1023.19
2018-01-27T11:53:03.212Z,1023.19
2018-01-27T11:54:03.225Z,1023.22
2018-01-27T11:55:03.287Z,1023.16
2018-01-27T11:56:03.284Z,1023.14
2018-01-27T11:57:03.293Z,1023.17
2018-01-27T11:58:03.303Z,1023.14
2018-01-27T11:59:03.325Z,1023.14
2018-01-27T12:00:03.350Z,1023.12
2018-01-27T12:01:03.369Z,1023.13
2018-01-27T12:02:03.431Z,1023.10
2018-01-27T12:03:03.409Z,1023.13
2018-01-27T12:04:03.450Z,1023.00
2018-01-27T12:05:03.445Z,1022.95
2018-01-27T12:06:03.468Z,1022.92